sensor_id;sensor_type;location;lat;lon;timestamp;P1;durP1;ratioP1;P2;durP2;ratioP2
4317;SDS011;2172;53.576;9.934;2022-12-18T00:02:21;26.60;;;16.97;;
4317;SDS011;2172;53.576;9.934;2022-12-18T00:04:49;28.20;;;19.07;;
4317;SDS011;2172;53.576;9.934;2022-12-18T00:07:17;27.03;;;16.97;;
4317;SDS011;2172;53.576;9.934;2022-12-18T00:09:45;29.53;;;18.70;;
4317;SDS011;2172;53.576;9.934;2022-12-18T00:12:12;29.60;;;18.30;;
4317;SDS011;2172;53.576;9.934;2022-12-18T00:14:39;24.93;;;16.83;;
4317;SDS011;2172;53.576;9.934;2022-12-18T00:17:09;21.00;;;16.00;;
4317;SDS011;2172;53.576;9.934;2022-12-18T00:19:36;26.40;;;16.93;;
4317;SDS011;2172;53.576;9.934;2022-12-18T00:22:03;32.03;;;18.63;;
4317;SDS011;2172;53.576;9.934;2022-12-18T00:24:32;28.37;;;18.23;;
4317;SDS011;2172;53.576;9.934;2022-12-18T00:27:00;26.83;;;18.03;;
4317;SDS011;2172;53.576;9.934;2022-12-18T00:29:27;27.17;;;18.13;;
4317;SDS011;2172;53.576;9.934;2022-12-18T00:31:55;27.87;;;16.40;;
4317;SDS011;2172;53.576;9.934;2022-12-18T00:34:22;27.00;;;19.03;;
4317;SDS011;2172;53.576;9.934;2022-12-18T00:36:51;31.00;;;18.10;;
4317;SDS011;2172;53.576;9.934;2022-12-18T00:39:18;29.70;;;19.10;;
4317;SDS011;2172;53.576;9.934;2022-12-18T00:41:47;27.57;;;18.20;;
4317;SDS011;2172;53.576;9.934;2022-12-18T00:44:32;26.43;;;17.20;;
4317;SDS011;2172;53.576;9.934;2022-12-18T00:46:59;26.87;;;16.80;;
4317;SDS011;2172;53.576;9.934;2022-12-18T00:49:27;32.23;;;18.70;;
4317;SDS011;2172;53.576;9.934;2022-12-18T00:51:54;31.60;;;17.90;;
4317;SDS011;2172;53.576;9.934;2022-12-18T00:54:21;31.87;;;18.07;;
4317;SDS011;2172;53.576;9.934;2022-12-18T00:56:50;32.50;;;19.20;;
4317;SDS011;2172;53.576;9.934;2022-12-18T00:59:19;31.20;;;17.23;;
4317;SDS011;2172;53.576;9.934;2022-12-18T01:01:50;26.00;;;16.30;;
4317;SDS011;2172;53.576;9.934;2022-12-18T01:04:19;24.23;;;16.03;;
4317;SDS011;2172;53.576;9.934;2022-12-18T01:06:46;25.10;;;16.90;;
4317;SDS011;2172;53.576;9.934;2022-12-18T01:09:13;25.83;;;16.93;;
4317;SDS011;2172;53.576;9.934;2022-12-18T01:11:41;28.57;;;15.90;;
4317;SDS011;2172;53.576;9.934;2022-12-18T01:14:11;26.77;;;15.80;;
4317;SDS011;2172;53.576;9.934;2022-12-18T01:16:38;28.10;;;17.33;;
4317;SDS011;2172;53.576;9.934;2022-12-18T01:19:05;27.70;;;16.60;;
4317;SDS011;2172;53.576;9.934;2022-12-18T01:21:33;24.97;;;16.07;;
4317;SDS011;2172;53.576;9.934;2022-12-18T01:24:03;31.30;;;18.33;;
4317;SDS011;2172;53.576;9.934;2022-12-18T01:26:30;28.93;;;17.30;;
4317;SDS011;2172;53.576;9.934;2022-12-18T01:28:57;23.77;;;15.40;;
4317;SDS011;2172;53.576;9.934;2022-12-18T01:31:27;26.00;;;16.90;;
4317;SDS011;2172;53.576;9.934;2022-12-18T01:33:54;29.70;;;16.40;;
4317;SDS011;2172;53.576;9.934;2022-12-18T01:36:22;26.03;;;16.90;;
4317;SDS011;2172;53.576;9.934;2022-12-18T01:38:50;26.80;;;16.53;;
4317;SDS011;2172;53.576;9.934;2022-12-18T01:41:19;27.97;;;16.50;;
4317;SDS011;2172;53.576;9.934;2022-12-18T01:43:48;30.97;;;15.53;;
4317;SDS011;2172;53.576;9.934;2022-12-18T01:46:16;24.97;;;15.33;;
4317;SDS011;2172;53.576;9.934;2022-12-18T01:48:45;26.57;;;16.40;;
4317;SDS011;2172;53.576;9.934;2022-12-18T01:51:14;25.40;;;15.20;;
4317;SDS011;2172;53.576;9.934;2022-12-18T01:53:42;22.43;;;14.63;;
4317;SDS011;2172;53.576;9.934;2022-12-18T01:56:12;22.77;;;15.80;;
4317;SDS011;2172;53.576;9.934;2022-12-18T01:58:41;26.23;;;16.20;;
4317;SDS011;2172;53.576;9.934;2022-12-18T02:01:10;23.27;;;14.50;;
4317;SDS011;2172;53.576;9.934;2022-12-18T02:03:40;22.83;;;16.70;;
4317;SDS011;2172;53.576;9.934;2022-12-18T02:06:10;21.90;;;14.93;;
4317;SDS011;2172;53.576;9.934;2022-12-18T02:08:40;24.77;;;15.10;;
4317;SDS011;2172;53.576;9.934;2022-12-18T02:11:12;28.60;;;16.23;;
4317;SDS011;2172;53.576;9.934;2022-12-18T02:13:43;24.40;;;16.70;;
4317;SDS011;2172;53.576;9.934;2022-12-18T02:16:15;26.67;;;15.47;;
4317;SDS011;2172;53.576;9.934;2022-12-18T02:18:45;25.17;;;16.27;;
4317;SDS011;2172;53.576;9.934;2022-12-18T02:21:24;24.30;;;15.03;;
4317;SDS011;2172;53.576;9.934;2022-12-18T02:23:56;26.70;;;15.40;;
4317;SDS011;2172;53.576;9.934;2022-12-18T02:26:27;21.00;;;14.13;;
4317;SDS011;2172;53.576;9.934;2022-12-18T02:28:58;27.13;;;16.70;;
4317;SDS011;2172;53.576;9.934;2022-12-18T02:31:30;21.50;;;15.07;;
4317;SDS011;2172;53.576;9.934;2022-12-18T02:33:58;23.27;;;14.07;;
4317;SDS011;2172;53.576;9.934;2022-12-18T02:36:26;21.87;;;14.03;;
4317;SDS011;2172;53.576;9.934;2022-12-18T02:38:55;23.23;;;14.80;;
4317;SDS011;2172;53.576;9.934;2022-12-18T02:41:24;23.07;;;14.80;;
4317;SDS011;2172;53.576;9.934;2022-12-18T02:43:55;23.80;;;14.70;;
4317;SDS011;2172;53.576;9.934;2022-12-18T02:46:28;23.93;;;14.67;;
4317;SDS011;2172;53.576;9.934;2022-12-18T02:48:58;22.30;;;14.30;;
4317;SDS011;2172;53.576;9.934;2022-12-18T02:51:30;23.17;;;14.20;;
4317;SDS011;2172;53.576;9.934;2022-12-18T02:54:00;21.13;;;15.00;;
4317;SDS011;2172;53.576;9.934;2022-12-18T02:56:31;28.80;;;15.97;;
4317;SDS011;2172;53.576;9.934;2022-12-18T02:59:04;21.90;;;15.80;;
4317;SDS011;2172;53.576;9.934;2022-12-18T03:01:41;25.57;;;14.60;;
4317;SDS011;2172;53.576;9.934;2022-12-18T03:04:11;22.97;;;15.67;;
4317;SDS011;2172;53.576;9.934;2022-12-18T03:06:42;22.83;;;15.47;;
4317;SDS011;2172;53.576;9.934;2022-12-18T03:09:12;24.80;;;15.90;;
4317;SDS011;2172;53.576;9.934;2022-12-18T03:11:42;27.07;;;16.63;;
4317;SDS011;2172;53.576;9.934;2022-12-18T03:14:30;20.63;;;14.90;;
4317;SDS011;2172;53.576;9.934;2022-12-18T03:16:59;25.60;;;17.50;;
4317;SDS011;2172;53.576;9.934;2022-12-18T03:19:28;33.17;;;17.73;;
4317;SDS011;2172;53.576;9.934;2022-12-18T03:22:02;25.47;;;16.03;;
4317;SDS011;2172;53.576;9.934;2022-12-18T03:24:40;27.27;;;15.90;;
4317;SDS011;2172;53.576;9.934;2022-12-18T03:27:08;24.30;;;16.43;;
4317;SDS011;2172;53.576;9.934;2022-12-18T03:29:38;27.17;;;17.00;;
4317;SDS011;2172;53.576;9.934;2022-12-18T03:32:10;31.77;;;18.10;;
4317;SDS011;2172;53.576;9.934;2022-12-18T03:34:39;43.60;;;23.30;;
4317;SDS011;2172;53.576;9.934;2022-12-18T03:37:11;31.67;;;18.80;;
4317;SDS011;2172;53.576;9.934;2022-12-18T03:39:39;30.00;;;18.43;;
4317;SDS011;2172;53.576;9.934;2022-12-18T03:42:07;26.60;;;17.37;;
4317;SDS011;2172;53.576;9.934;2022-12-18T03:44:43;25.97;;;15.50;;
4317;SDS011;2172;53.576;9.934;2022-12-18T03:47:13;25.77;;;16.20;;
4317;SDS011;2172;53.576;9.934;2022-12-18T03:49:44;28.93;;;16.50;;
4317;SDS011;2172;53.576;9.934;2022-12-18T03:52:17;33.67;;;16.20;;
4317;SDS011;2172;53.576;9.934;2022-12-18T03:54:45;30.70;;;17.87;;
4317;SDS011;2172;53.576;9.934;2022-12-18T03:57:16;30.80;;;16.23;;
4317;SDS011;2172;53.576;9.934;2022-12-18T03:59:49;25.00;;;15.27;;
4317;SDS011;2172;53.576;9.934;2022-12-18T04:02:20;23.73;;;16.17;;
4317;SDS011;2172;53.576;9.934;2022-12-18T04:04:50;24.23;;;15.77;;
4317;SDS011;2172;53.576;9.934;2022-12-18T04:07:18;23.37;;;15.03;;
4317;SDS011;2172;53.576;9.934;2022-12-18T04:09:47;26.90;;;13.87;;
4317;SDS011;2172;53.576;9.934;2022-12-18T04:12:16;27.00;;;14.70;;
4317;SDS011;2172;53.576;9.934;2022-12-18T04:14:45;25.00;;;14.00;;
4317;SDS011;2172;53.576;9.934;2022-12-18T04:17:14;22.30;;;13.83;;
4317;SDS011;2172;53.576;9.934;2022-12-18T04:19:41;23.40;;;14.23;;
4317;SDS011;2172;53.576;9.934;2022-12-18T04:22:09;22.60;;;14.63;;
4317;SDS011;2172;53.576;9.934;2022-12-18T04:24:42;18.30;;;13.03;;
4317;SDS011;2172;53.576;9.934;2022-12-18T04:27:25;24.23;;;13.40;;
4317;SDS011;2172;53.576;9.934;2022-12-18T04:29:53;21.07;;;14.10;;
4317;SDS011;2172;53.576;9.934;2022-12-18T04:32:22;20.67;;;13.43;;
4317;SDS011;2172;53.576;9.934;2022-12-18T04:34:50;21.30;;;14.17;;
4317;SDS011;2172;53.576;9.934;2022-12-18T04:37:17;16.83;;;13.60;;
4317;SDS011;2172;53.576;9.934;2022-12-18T04:39:46;19.93;;;13.07;;
4317;SDS011;2172;53.576;9.934;2022-12-18T04:42:21;20.13;;;14.00;;
4317;SDS011;2172;53.576;9.934;2022-12-18T04:44:49;21.53;;;15.10;;
4317;SDS011;2172;53.576;9.934;2022-12-18T04:47:16;17.73;;;12.80;;
4317;SDS011;2172;53.576;9.934;2022-12-18T04:49:44;22.73;;;12.30;;
4317;SDS011;2172;53.576;9.934;2022-12-18T04:52:12;19.97;;;13.80;;
4317;SDS011;2172;53.576;9.934;2022-12-18T04:54:39;21.53;;;14.80;;
4317;SDS011;2172;53.576;9.934;2022-12-18T04:57:06;20.70;;;14.10;;
4317;SDS011;2172;53.576;9.934;2022-12-18T04:59:33;24.80;;;13.53;;
4317;SDS011;2172;53.576;9.934;2022-12-18T05:02:01;23.37;;;13.97;;
4317;SDS011;2172;53.576;9.934;2022-12-18T05:04:28;19.83;;;11.90;;
4317;SDS011;2172;53.576;9.934;2022-12-18T05:06:56;19.37;;;12.93;;
4317;SDS011;2172;53.576;9.934;2022-12-18T05:09:24;30.77;;;14.40;;
4317;SDS011;2172;53.576;9.934;2022-12-18T05:11:51;20.60;;;13.10;;
4317;SDS011;2172;53.576;9.934;2022-12-18T05:14:19;20.30;;;12.70;;
4317;SDS011;2172;53.576;9.934;2022-12-18T05:16:46;21.97;;;13.20;;
4317;SDS011;2172;53.576;9.934;2022-12-18T05:19:13;25.00;;;15.10;;
4317;SDS011;2172;53.576;9.934;2022-12-18T05:21:40;22.40;;;13.07;;
4317;SDS011;2172;53.576;9.934;2022-12-18T05:24:09;20.50;;;13.50;;
4317;SDS011;2172;53.576;9.934;2022-12-18T05:26:36;20.43;;;12.47;;
4317;SDS011;2172;53.576;9.934;2022-12-18T05:29:04;22.70;;;14.93;;
4317;SDS011;2172;53.576;9.934;2022-12-18T05:31:31;23.00;;;13.10;;
4317;SDS011;2172;53.576;9.934;2022-12-18T05:33:58;21.07;;;13.83;;
4317;SDS011;2172;53.576;9.934;2022-12-18T05:36:25;20.10;;;13.70;;
4317;SDS011;2172;53.576;9.934;2022-12-18T05:38:52;21.23;;;13.30;;
4317;SDS011;2172;53.576;9.934;2022-12-18T05:41:21;20.90;;;13.33;;
4317;SDS011;2172;53.576;9.934;2022-12-18T05:43:48;21.70;;;14.77;;
4317;SDS011;2172;53.576;9.934;2022-12-18T05:46:16;21.87;;;14.60;;
4317;SDS011;2172;53.576;9.934;2022-12-18T05:48:44;25.93;;;15.40;;
4317;SDS011;2172;53.576;9.934;2022-12-18T05:51:12;23.70;;;15.60;;
4317;SDS011;2172;53.576;9.934;2022-12-18T05:53:40;21.20;;;14.77;;
4317;SDS011;2172;53.576;9.934;2022-12-18T05:56:09;23.73;;;15.63;;
4317;SDS011;2172;53.576;9.934;2022-12-18T05:58:38;24.57;;;16.50;;
4317;SDS011;2172;53.576;9.934;2022-12-18T06:01:06;19.83;;;15.13;;
4317;SDS011;2172;53.576;9.934;2022-12-18T06:03:33;23.67;;;15.70;;
4317;SDS011;2172;53.576;9.934;2022-12-18T06:06:01;24.03;;;16.53;;
4317;SDS011;2172;53.576;9.934;2022-12-18T06:08:28;24.93;;;16.50;;
4317;SDS011;2172;53.576;9.934;2022-12-18T06:10:55;24.53;;;16.07;;
4317;SDS011;2172;53.576;9.934;2022-12-18T06:13:22;23.00;;;16.20;;
4317;SDS011;2172;53.576;9.934;2022-12-18T06:15:51;26.43;;;16.13;;
4317;SDS011;2172;53.576;9.934;2022-12-18T06:18:18;26.90;;;16.97;;
4317;SDS011;2172;53.576;9.934;2022-12-18T06:20:53;22.67;;;16.07;;
4317;SDS011;2172;53.576;9.934;2022-12-18T06:23:21;22.70;;;15.90;;
4317;SDS011;2172;53.576;9.934;2022-12-18T06:25:48;24.83;;;16.50;;
4317;SDS011;2172;53.576;9.934;2022-12-18T06:28:15;21.60;;;16.10;;
4317;SDS011;2172;53.576;9.934;2022-12-18T06:30:43;20.53;;;15.40;;
4317;SDS011;2172;53.576;9.934;2022-12-18T06:33:11;23.40;;;16.67;;
4317;SDS011;2172;53.576;9.934;2022-12-18T06:35:38;23.33;;;15.23;;
4317;SDS011;2172;53.576;9.934;2022-12-18T06:38:06;19.80;;;14.50;;
4317;SDS011;2172;53.576;9.934;2022-12-18T06:40:33;24.47;;;15.90;;
4317;SDS011;2172;53.576;9.934;2022-12-18T06:43:00;26.40;;;15.87;;
4317;SDS011;2172;53.576;9.934;2022-12-18T06:45:27;21.73;;;15.13;;
4317;SDS011;2172;53.576;9.934;2022-12-18T06:47:55;18.60;;;14.50;;
4317;SDS011;2172;53.576;9.934;2022-12-18T06:50:23;21.30;;;14.73;;
4317;SDS011;2172;53.576;9.934;2022-12-18T06:52:50;20.50;;;13.70;;
4317;SDS011;2172;53.576;9.934;2022-12-18T06:55:18;26.07;;;14.90;;
4317;SDS011;2172;53.576;9.934;2022-12-18T06:57:45;18.43;;;14.30;;
4317;SDS011;2172;53.576;9.934;2022-12-18T07:00:13;22.27;;;14.63;;
4317;SDS011;2172;53.576;9.934;2022-12-18T07:02:40;22.83;;;13.60;;
4317;SDS011;2172;53.576;9.934;2022-12-18T07:05:08;21.17;;;13.87;;
4317;SDS011;2172;53.576;9.934;2022-12-18T07:07:37;24.47;;;14.20;;
4317;SDS011;2172;53.576;9.934;2022-12-18T07:10:04;17.70;;;13.80;;
4317;SDS011;2172;53.576;9.934;2022-12-18T07:12:32;24.23;;;14.40;;
4317;SDS011;2172;53.576;9.934;2022-12-18T07:14:59;23.63;;;14.93;;
4317;SDS011;2172;53.576;9.934;2022-12-18T07:17:26;18.90;;;14.20;;
4317;SDS011;2172;53.576;9.934;2022-12-18T07:19:54;24.77;;;14.67;;
4317;SDS011;2172;53.576;9.934;2022-12-18T07:22:22;30.50;;;17.93;;
4317;SDS011;2172;53.576;9.934;2022-12-18T07:24:50;19.17;;;13.70;;
4317;SDS011;2172;53.576;9.934;2022-12-18T07:27:18;25.47;;;15.63;;
4317;SDS011;2172;53.576;9.934;2022-12-18T07:29:45;24.23;;;14.10;;
4317;SDS011;2172;53.576;9.934;2022-12-18T07:32:13;18.27;;;14.03;;
4317;SDS011;2172;53.576;9.934;2022-12-18T07:34:40;20.37;;;13.30;;
4317;SDS011;2172;53.576;9.934;2022-12-18T07:37:07;24.70;;;15.03;;
4317;SDS011;2172;53.576;9.934;2022-12-18T07:39:35;19.43;;;13.37;;
4317;SDS011;2172;53.576;9.934;2022-12-18T07:42:04;20.17;;;14.70;;
4317;SDS011;2172;53.576;9.934;2022-12-18T07:44:53;19.53;;;14.50;;
4317;SDS011;2172;53.576;9.934;2022-12-18T07:47:20;19.70;;;14.40;;
4317;SDS011;2172;53.576;9.934;2022-12-18T07:49:48;21.13;;;14.07;;
4317;SDS011;2172;53.576;9.934;2022-12-18T07:52:15;22.20;;;14.83;;
4317;SDS011;2172;53.576;9.934;2022-12-18T07:54:42;23.70;;;15.57;;
4317;SDS011;2172;53.576;9.934;2022-12-18T07:57:11;22.33;;;14.00;;
4317;SDS011;2172;53.576;9.934;2022-12-18T07:59:38;27.30;;;15.17;;
4317;SDS011;2172;53.576;9.934;2022-12-18T08:02:05;21.70;;;14.10;;
4317;SDS011;2172;53.576;9.934;2022-12-18T08:04:33;21.90;;;14.30;;
4317;SDS011;2172;53.576;9.934;2022-12-18T08:07:00;22.37;;;14.80;;
4317;SDS011;2172;53.576;9.934;2022-12-18T08:09:27;17.90;;;12.50;;
4317;SDS011;2172;53.576;9.934;2022-12-18T08:11:54;18.80;;;13.63;;
4317;SDS011;2172;53.576;9.934;2022-12-18T08:14:23;22.10;;;16.33;;
4317;SDS011;2172;53.576;9.934;2022-12-18T08:16:50;20.70;;;15.73;;
4317;SDS011;2172;53.576;9.934;2022-12-18T08:19:18;19.80;;;13.70;;
4317;SDS011;2172;53.576;9.934;2022-12-18T08:21:45;21.60;;;14.43;;
4317;SDS011;2172;53.576;9.934;2022-12-18T08:24:12;18.40;;;13.63;;
4317;SDS011;2172;53.576;9.934;2022-12-18T08:26:39;20.03;;;14.13;;
4317;SDS011;2172;53.576;9.934;2022-12-18T08:29:08;24.93;;;13.73;;
4317;SDS011;2172;53.576;9.934;2022-12-18T08:31:37;21.60;;;14.23;;
4317;SDS011;2172;53.576;9.934;2022-12-18T08:34:04;19.50;;;14.00;;
4317;SDS011;2172;53.576;9.934;2022-12-18T08:36:31;22.67;;;13.50;;
4317;SDS011;2172;53.576;9.934;2022-12-18T08:38:58;21.80;;;14.53;;
4317;SDS011;2172;53.576;9.934;2022-12-18T08:41:26;22.97;;;14.40;;
4317;SDS011;2172;53.576;9.934;2022-12-18T08:43:53;19.63;;;13.57;;
4317;SDS011;2172;53.576;9.934;2022-12-18T08:46:41;22.63;;;14.27;;
4317;SDS011;2172;53.576;9.934;2022-12-18T08:49:09;26.70;;;14.30;;
4317;SDS011;2172;53.576;9.934;2022-12-18T08:51:36;24.93;;;13.60;;
4317;SDS011;2172;53.576;9.934;2022-12-18T08:54:04;19.07;;;13.83;;
4317;SDS011;2172;53.576;9.934;2022-12-18T08:56:32;20.83;;;13.50;;
4317;SDS011;2172;53.576;9.934;2022-12-18T08:58:59;21.03;;;13.50;;
4317;SDS011;2172;53.576;9.934;2022-12-18T09:01:26;19.93;;;13.43;;
4317;SDS011;2172;53.576;9.934;2022-12-18T09:03:56;18.60;;;13.30;;
4317;SDS011;2172;53.576;9.934;2022-12-18T09:06:24;17.33;;;13.23;;
4317;SDS011;2172;53.576;9.934;2022-12-18T09:08:51;22.20;;;14.10;;
4317;SDS011;2172;53.576;9.934;2022-12-18T09:11:19;22.70;;;15.33;;
4317;SDS011;2172;53.576;9.934;2022-12-18T09:13:47;23.17;;;13.70;;
4317;SDS011;2172;53.576;9.934;2022-12-18T09:16:15;17.00;;;12.50;;
4317;SDS011;2172;53.576;9.934;2022-12-18T09:18:42;18.40;;;13.33;;
4317;SDS011;2172;53.576;9.934;2022-12-18T09:21:12;23.87;;;14.80;;
4317;SDS011;2172;53.576;9.934;2022-12-18T09:23:40;22.43;;;14.80;;
4317;SDS011;2172;53.576;9.934;2022-12-18T09:26:07;20.60;;;14.10;;
4317;SDS011;2172;53.576;9.934;2022-12-18T09:28:35;24.27;;;16.00;;
4317;SDS011;2172;53.576;9.934;2022-12-18T09:31:06;20.97;;;15.43;;
4317;SDS011;2172;53.576;9.934;2022-12-18T09:33:34;21.53;;;14.87;;
4317;SDS011;2172;53.576;9.934;2022-12-18T09:36:02;20.17;;;14.17;;
4317;SDS011;2172;53.576;9.934;2022-12-18T09:38:31;22.90;;;14.77;;
4317;SDS011;2172;53.576;9.934;2022-12-18T09:40:59;23.60;;;15.40;;
4317;SDS011;2172;53.576;9.934;2022-12-18T09:43:28;19.57;;;14.20;;
4317;SDS011;2172;53.576;9.934;2022-12-18T09:45:57;19.97;;;14.47;;
4317;SDS011;2172;53.576;9.934;2022-12-18T09:48:27;18.87;;;14.60;;
4317;SDS011;2172;53.576;9.934;2022-12-18T09:50:59;21.53;;;14.27;;
4317;SDS011;2172;53.576;9.934;2022-12-18T09:53:28;22.43;;;15.70;;
4317;SDS011;2172;53.576;9.934;2022-12-18T09:55:58;25.23;;;16.00;;
4317;SDS011;2172;53.576;9.934;2022-12-18T09:58:28;16.73;;;12.87;;
4317;SDS011;2172;53.576;9.934;2022-12-18T10:00:57;27.23;;;16.97;;
4317;SDS011;2172;53.576;9.934;2022-12-18T10:03:24;19.23;;;14.23;;
4317;SDS011;2172;53.576;9.934;2022-12-18T10:05:55;20.63;;;14.20;;
4317;SDS011;2172;53.576;9.934;2022-12-18T10:08:27;20.73;;;14.27;;
4317;SDS011;2172;53.576;9.934;2022-12-18T10:10:56;17.80;;;12.80;;
4317;SDS011;2172;53.576;9.934;2022-12-18T10:13:28;24.23;;;13.47;;
4317;SDS011;2172;53.576;9.934;2022-12-18T10:16:01;21.23;;;14.07;;
4317;SDS011;2172;53.576;9.934;2022-12-18T10:18:35;19.57;;;14.20;;
4317;SDS011;2172;53.576;9.934;2022-12-18T10:21:06;20.30;;;14.00;;
4317;SDS011;2172;53.576;9.934;2022-12-18T10:23:38;22.67;;;15.83;;
4317;SDS011;2172;53.576;9.934;2022-12-18T10:26:07;21.43;;;14.13;;
4317;SDS011;2172;53.576;9.934;2022-12-18T10:28:36;22.60;;;14.00;;
4317;SDS011;2172;53.576;9.934;2022-12-18T10:31:05;19.13;;;13.57;;
4317;SDS011;2172;53.576;9.934;2022-12-18T10:33:32;19.67;;;13.40;;
4317;SDS011;2172;53.576;9.934;2022-12-18T10:36:00;16.53;;;12.43;;
4317;SDS011;2172;53.576;9.934;2022-12-18T10:38:28;19.60;;;13.83;;
4317;SDS011;2172;53.576;9.934;2022-12-18T10:40:58;17.63;;;13.43;;
4317;SDS011;2172;53.576;9.934;2022-12-18T10:43:26;22.70;;;14.40;;
4317;SDS011;2172;53.576;9.934;2022-12-18T10:45:59;17.60;;;13.30;;
4317;SDS011;2172;53.576;9.934;2022-12-18T10:48:27;17.80;;;14.30;;
4317;SDS011;2172;53.576;9.934;2022-12-18T10:50:55;19.80;;;13.50;;
4317;SDS011;2172;53.576;9.934;2022-12-18T10:53:24;18.27;;;13.47;;
4317;SDS011;2172;53.576;9.934;2022-12-18T10:55:52;21.03;;;14.10;;
4317;SDS011;2172;53.576;9.934;2022-12-18T10:58:22;23.57;;;15.50;;
4317;SDS011;2172;53.576;9.934;2022-12-18T11:01:03;19.40;;;13.77;;
4317;SDS011;2172;53.576;9.934;2022-12-18T11:03:31;19.83;;;13.67;;
4317;SDS011;2172;53.576;9.934;2022-12-18T11:06:01;20.93;;;14.57;;
4317;SDS011;2172;53.576;9.934;2022-12-18T11:08:29;18.87;;;13.33;;
4317;SDS011;2172;53.576;9.934;2022-12-18T11:10:56;21.53;;;13.23;;
4317;SDS011;2172;53.576;9.934;2022-12-18T11:13:24;20.07;;;14.10;;
4317;SDS011;2172;53.576;9.934;2022-12-18T11:15:53;18.40;;;12.40;;
4317;SDS011;2172;53.576;9.934;2022-12-18T11:18:24;22.00;;;14.57;;
4317;SDS011;2172;53.576;9.934;2022-12-18T11:20:53;21.80;;;12.73;;
4317;SDS011;2172;53.576;9.934;2022-12-18T11:23:22;19.50;;;12.60;;
4317;SDS011;2172;53.576;9.934;2022-12-18T11:25:54;23.20;;;14.93;;
4317;SDS011;2172;53.576;9.934;2022-12-18T11:28:25;19.83;;;12.80;;
4317;SDS011;2172;53.576;9.934;2022-12-18T11:31:08;21.03;;;13.80;;
4317;SDS011;2172;53.576;9.934;2022-12-18T11:33:39;21.70;;;13.83;;
4317;SDS011;2172;53.576;9.934;2022-12-18T11:36:08;19.60;;;13.73;;
4317;SDS011;2172;53.576;9.934;2022-12-18T11:38:37;19.33;;;12.87;;
4317;SDS011;2172;53.576;9.934;2022-12-18T11:41:05;22.73;;;14.07;;
4317;SDS011;2172;53.576;9.934;2022-12-18T11:43:35;24.67;;;14.17;;
4317;SDS011;2172;53.576;9.934;2022-12-18T11:46:05;18.20;;;12.80;;
4317;SDS011;2172;53.576;9.934;2022-12-18T11:48:34;19.30;;;13.30;;
4317;SDS011;2172;53.576;9.934;2022-12-18T11:51:05;19.60;;;13.90;;
4317;SDS011;2172;53.576;9.934;2022-12-18T11:53:37;21.23;;;13.27;;
4317;SDS011;2172;53.576;9.934;2022-12-18T11:56:11;21.33;;;13.13;;
4317;SDS011;2172;53.576;9.934;2022-12-18T11:58:43;18.50;;;13.37;;
4317;SDS011;2172;53.576;9.934;2022-12-18T12:01:25;16.23;;;12.77;;
4317;SDS011;2172;53.576;9.934;2022-12-18T12:04:14;22.60;;;13.50;;
4317;SDS011;2172;53.576;9.934;2022-12-18T12:06:47;18.20;;;13.60;;
4317;SDS011;2172;53.576;9.934;2022-12-18T12:09:18;20.47;;;12.87;;
4317;SDS011;2172;53.576;9.934;2022-12-18T12:11:50;17.37;;;11.83;;
4317;SDS011;2172;53.576;9.934;2022-12-18T12:14:29;19.97;;;12.93;;
4317;SDS011;2172;53.576;9.934;2022-12-18T12:17:03;17.10;;;13.00;;
4317;SDS011;2172;53.576;9.934;2022-12-18T12:19:35;24.33;;;14.57;;
4317;SDS011;2172;53.576;9.934;2022-12-18T12:22:07;23.87;;;13.63;;
4317;SDS011;2172;53.576;9.934;2022-12-18T12:24:42;17.83;;;11.33;;
4317;SDS011;2172;53.576;9.934;2022-12-18T12:27:13;18.70;;;13.27;;
4317;SDS011;2172;53.576;9.934;2022-12-18T12:29:46;19.13;;;13.50;;
4317;SDS011;2172;53.576;9.934;2022-12-18T12:32:20;28.63;;;15.83;;
4317;SDS011;2172;53.576;9.934;2022-12-18T12:34:53;21.23;;;14.47;;
4317;SDS011;2172;53.576;9.934;2022-12-18T12:37:26;23.40;;;15.77;;
4317;SDS011;2172;53.576;9.934;2022-12-18T12:39:56;19.10;;;13.77;;
4317;SDS011;2172;53.576;9.934;2022-12-18T12:42:25;19.40;;;14.60;;
4317;SDS011;2172;53.576;9.934;2022-12-18T12:45:14;23.73;;;14.57;;
4317;SDS011;2172;53.576;9.934;2022-12-18T12:47:43;25.03;;;15.57;;
4317;SDS011;2172;53.576;9.934;2022-12-18T12:50:13;25.70;;;14.50;;
4317;SDS011;2172;53.576;9.934;2022-12-18T12:52:44;25.60;;;16.50;;
4317;SDS011;2172;53.576;9.934;2022-12-18T12:55:14;24.03;;;14.43;;
4317;SDS011;2172;53.576;9.934;2022-12-18T12:57:43;22.40;;;14.30;;
4317;SDS011;2172;53.576;9.934;2022-12-18T13:00:13;24.13;;;14.33;;
4317;SDS011;2172;53.576;9.934;2022-12-18T13:02:42;24.37;;;15.43;;
4317;SDS011;2172;53.576;9.934;2022-12-18T13:05:14;23.70;;;14.37;;
4317;SDS011;2172;53.576;9.934;2022-12-18T13:07:47;24.60;;;16.07;;
4317;SDS011;2172;53.576;9.934;2022-12-18T13:10:24;24.83;;;14.73;;
4317;SDS011;2172;53.576;9.934;2022-12-18T13:12:53;25.40;;;14.80;;
4317;SDS011;2172;53.576;9.934;2022-12-18T13:15:24;29.67;;;16.00;;
4317;SDS011;2172;53.576;9.934;2022-12-18T13:18:04;23.60;;;15.77;;
4317;SDS011;2172;53.576;9.934;2022-12-18T13:20:32;23.50;;;14.50;;
4317;SDS011;2172;53.576;9.934;2022-12-18T13:23:02;23.37;;;15.00;;
4317;SDS011;2172;53.576;9.934;2022-12-18T13:25:45;24.50;;;14.23;;
4317;SDS011;2172;53.576;9.934;2022-12-18T13:28:13;24.00;;;14.87;;
4317;SDS011;2172;53.576;9.934;2022-12-18T13:30:45;25.70;;;14.60;;
4317;SDS011;2172;53.576;9.934;2022-12-18T13:36:13;26.20;;;15.50;;
4317;SDS011;2172;53.576;9.934;2022-12-18T13:38:43;24.80;;;16.50;;
4317;SDS011;2172;53.576;9.934;2022-12-18T13:41:23;28.83;;;17.73;;
4317;SDS011;2172;53.576;9.934;2022-12-18T13:43:51;30.77;;;16.80;;
4317;SDS011;2172;53.576;9.934;2022-12-18T13:46:20;28.63;;;15.40;;
4317;SDS011;2172;53.576;9.934;2022-12-18T13:48:52;31.17;;;17.87;;
4317;SDS011;2172;53.576;9.934;2022-12-18T13:51:21;28.77;;;17.10;;
4317;SDS011;2172;53.576;9.934;2022-12-18T13:53:50;29.10;;;16.50;;
4317;SDS011;2172;53.576;9.934;2022-12-18T13:56:21;31.27;;;16.80;;
4317;SDS011;2172;53.576;9.934;2022-12-18T13:59:12;26.60;;;17.17;;
4317;SDS011;2172;53.576;9.934;2022-12-18T14:01:47;31.17;;;17.50;;
4317;SDS011;2172;53.576;9.934;2022-12-18T14:04:19;27.63;;;15.67;;
4317;SDS011;2172;53.576;9.934;2022-12-18T14:06:47;27.67;;;17.40;;
4317;SDS011;2172;53.576;9.934;2022-12-18T14:09:19;36.47;;;17.13;;
4317;SDS011;2172;53.576;9.934;2022-12-18T14:11:48;25.70;;;15.40;;
4317;SDS011;2172;53.576;9.934;2022-12-18T14:14:15;29.07;;;16.07;;
4317;SDS011;2172;53.576;9.934;2022-12-18T14:16:43;30.57;;;17.13;;
4317;SDS011;2172;53.576;9.934;2022-12-18T14:19:12;33.33;;;15.60;;
4317;SDS011;2172;53.576;9.934;2022-12-18T14:21:44;25.03;;;15.80;;
4317;SDS011;2172;53.576;9.934;2022-12-18T14:24:13;28.33;;;17.00;;
4317;SDS011;2172;53.576;9.934;2022-12-18T14:26:42;30.40;;;17.10;;
4317;SDS011;2172;53.576;9.934;2022-12-18T14:29:20;32.57;;;18.00;;
4317;SDS011;2172;53.576;9.934;2022-12-18T14:34:30;30.70;;;17.80;;
4317;SDS011;2172;53.576;9.934;2022-12-18T14:36:57;40.67;;;18.90;;
4317;SDS011;2172;53.576;9.934;2022-12-18T14:39:24;31.87;;;17.37;;
4317;SDS011;2172;53.576;9.934;2022-12-18T14:41:53;38.23;;;19.17;;
4317;SDS011;2172;53.576;9.934;2022-12-18T14:44:20;35.83;;;19.60;;
4317;SDS011;2172;53.576;9.934;2022-12-18T14:46:48;34.40;;;18.83;;
4317;SDS011;2172;53.576;9.934;2022-12-18T14:49:20;31.03;;;17.77;;
4317;SDS011;2172;53.576;9.934;2022-12-18T14:51:49;34.57;;;18.87;;
4317;SDS011;2172;53.576;9.934;2022-12-18T14:54:18;34.33;;;19.40;;
4317;SDS011;2172;53.576;9.934;2022-12-18T14:56:47;29.27;;;16.67;;
4317;SDS011;2172;53.576;9.934;2022-12-18T14:59:18;35.63;;;18.77;;
4317;SDS011;2172;53.576;9.934;2022-12-18T15:01:56;37.13;;;20.40;;
4317;SDS011;2172;53.576;9.934;2022-12-18T15:04:25;36.00;;;18.77;;
4317;SDS011;2172;53.576;9.934;2022-12-18T15:07:03;34.87;;;19.70;;
4317;SDS011;2172;53.576;9.934;2022-12-18T15:09:31;34.80;;;17.90;;